Time;durP1;ratioP1;P1;durP2;ratioP2;P2;SDS_P1;SDS_P2;PMS_P1;PMS_P2;Temp;Humidity;BMP_temperature;BMP_pressure;BME280_temperature;BME280_humidity;BME280_pressure;Samples;Min_cycle;Max_cycle;Signal;HPM_P1;HPM_P2
2022/08/09 00:00:25;;;;;;;8.65;4.22;;;;;;;;;;10470597;28;20020;-75
2022/08/09 00:05:25;;;;;;;5.57;3.72;;;;;;;;;;10451155;28;20021;-75
2022/08/09 00:10:26;;;;;;;8.63;3.92;;;;;;;;;;10468271;28;20111;-76
2022/08/09 00:15:26;;;;;;;6.63;3.90;;;;;;;;;;10450411;28;20056;-74
2022/08/09 00:20:26;;;;;;;5.23;3.80;;;;;;;;;;10473813;28;20286;-74
2022/08/09 00:42:21;;;;;;;7.07;3.63;;;;;;;;;;10862735;23;20475;-75
2022/08/09 00:47:21;;;;;;;6.10;4.05;;;;;;;;;;10493767;28;20057;-74
2022/08/09 00:52:23;;;;;;;5.70;3.90;;;;;;;;;;10475958;28;20060;-73
2022/08/09 00:57:24;;;;;;;9.32;3.70;;;;;;;;;;10492918;28;20278;-74
2022/08/09 01:02:27;;;;;;;8.25;3.85;;;;;;;;;;10493022;28;20031;-74
2022/08/09 01:07:32;;;;;;;6.22;4.10;;;;;;;;;;10475113;28;20397;-74
2022/08/09 01:12:46;;;;;;;7.22;4.65;;;;;;;;;;10497048;28;20023;-74
2022/08/09 01:17:54;;;;;;;8.82;4.30;;;;;;;;;;10482503;28;20044;-74
2022/08/09 01:23:14;;;;;;;5.80;4.07;;;;;;;;;;10465901;28;20071;-74
2022/08/09 01:28:14;;;;;;;5.97;3.75;;;;;;;;;;10500177;28;20028;-74
2022/08/09 01:33:16;;;;;;;5.72;4.20;;;;;;;;;;10481993;28;20029;-74
2022/08/09 01:38:18;;;;;;;4.70;3.67;;;;;;;;;;10481658;28;20032;-74
2022/08/09 01:43:19;;;;;;;7.63;4.20;;;;;;;;;;10456832;28;20114;-75
2022/08/09 01:48:20;;;;;;;9.52;4.30;;;;;;;;;;10457131;28;20025;-74
2022/08/09 01:53:24;;;;;;;6.75;4.63;;;;;;;;;;10440045;28;20036;-74
2022/08/09 01:58:25;;;;;;;11.50;5.82;;;;;;;;;;10456465;28;20028;-74
2022/08/09 02:03:28;;;;;;;4.85;3.85;;;;;;;;;;10456515;28;20055;-75
2022/08/09 02:08:30;;;;;;;11.82;4.65;;;;;;;;;;10456238;28;20033;-75
2022/08/09 02:13:31;;;;;;;7.75;4.65;;;;;;;;;;10457666;28;20497;-74
2022/08/09 02:18:32;;;;;;;13.05;4.63;;;;;;;;;;10475418;28;20024;-74
2022/08/09 02:23:42;;;;;;;6.32;3.95;;;;;;;;;;10496458;28;20028;-76
2022/08/09 02:28:46;;;;;;;8.70;4.45;;;;;;;;;;10496359;28;20016;-74
2022/08/09 02:33:47;;;;;;;10.13;4.72;;;;;;;;;;10496149;28;20023;-74
2022/08/09 02:38:49;;;;;;;7.05;3.75;;;;;;;;;;10495988;28;20060;-74
2022/08/09 02:43:51;;;;;;;8.98;4.05;;;;;;;;;;10495123;28;20049;-74
2022/08/09 02:48:53;;;;;;;6.60;3.92;;;;;;;;;;10495262;28;20025;-75
2022/08/09 02:53:56;;;;;;;6.82;4.40;;;;;;;;;;10495038;28;20070;-74
2022/08/09 02:58:58;;;;;;;11.65;4.75;;;;;;;;;;10496224;28;20028;-74
2022/08/09 03:03:59;;;;;;;10.48;4.32;;;;;;;;;;10494544;28;20031;-74
2022/08/09 03:09:00;;;;;;;10.27;4.97;;;;;;;;;;10495809;28;20029;-73
2022/08/09 03:14:00;;;;;;;6.80;4.55;;;;;;;;;;10494241;28;20020;-74
2022/08/09 03:19:01;;;;;;;6.47;4.43;;;;;;;;;;10494080;28;20446;-75
2022/08/09 03:24:02;;;;;;;10.38;5.82;;;;;;;;;;10495580;28;20029;-75
2022/08/09 03:29:02;;;;;;;5.78;4.13;;;;;;;;;;10495231;28;20024;-73
2022/08/09 03:34:03;;;;;;;8.88;4.97;;;;;;;;;;10492869;28;20046;-74
2022/08/09 03:39:04;;;;;;;11.00;4.65;;;;;;;;;;10493504;28;20029;-73
2022/08/09 03:44:04;;;;;;;13.63;4.50;;;;;;;;;;10492451;28;20074;-74
2022/08/09 03:49:05;;;;;;;7.50;4.75;;;;;;;;;;10492818;28;20324;-73
2022/08/09 03:54:05;;;;;;;9.45;5.55;;;;;;;;;;10494071;28;20478;-74
2022/08/09 03:59:06;;;;;;;8.17;4.90;;;;;;;;;;10492586;28;20107;-74
2022/08/09 04:04:06;;;;;;;16.02;5.30;;;;;;;;;;10492074;28;20561;-75
2022/08/09 04:09:07;;;;;;;9.65;5.63;;;;;;;;;;10493865;28;20029;-75
2022/08/09 04:14:07;;;;;;;17.53;6.30;;;;;;;;;;10492292;28;20024;-77
2022/08/09 04:19:07;;;;;;;12.82;7.25;;;;;;;;;;10492243;28;20157;-75
2022/08/09 04:24:08;;;;;;;15.23;6.53;;;;;;;;;;10492240;28;20029;-75
2022/08/09 04:29:08;;;;;;;14.27;5.53;;;;;;;;;;10492128;28;20115;-74
2022/08/09 04:34:08;;;;;;;15.70;5.85;;;;;;;;;;10491889;28;20124;-74
2022/08/09 04:39:09;;;;;;;10.82;6.13;;;;;;;;;;10491804;28;20024;-75
2022/08/09 04:44:11;;;;;;;11.10;6.13;;;;;;;;;;10491290;28;20055;-74
2022/08/09 04:49:11;;;;;;;10.13;5.68;;;;;;;;;;10487425;28;20031;-75
2022/08/09 04:54:11;;;;;;;14.80;6.10;;;;;;;;;;10467931;28;20378;-75
2022/08/09 04:59:11;;;;;;;11.55;4.93;;;;;;;;;;10500841;28;20516;-74
2022/08/09 05:04:12;;;;;;;11.05;5.30;;;;;;;;;;10499575;28;20404;-74
2022/08/09 05:09:12;;;;;;;19.98;6.40;;;;;;;;;;10469215;28;20486;-74
2022/08/09 05:14:12;;;;;;;9.88;6.35;;;;;;;;;;10498494;28;20481;-74
2022/08/09 05:19:13;;;;;;;16.63;6.10;;;;;;;;;;10472136;28;20400;-74
2022/08/09 05:24:14;;;;;;;12.80;5.93;;;;;;;;;;10513604;28;20016;-75
2022/08/09 05:29:18;;;;;;;11.88;5.78;;;;;;;;;;10497983;28;20123;-75
2022/08/09 05:34:18;;;;;;;13.02;5.10;;;;;;;;;;10513308;28;20026;-74
2022/08/09 05:39:18;;;;;;;11.00;5.60;;;;;;;;;;10497602;28;20103;-74
2022/08/09 05:44:18;;;;;;;9.57;5.57;;;;;;;;;;10497549;28;20057;-76
2022/08/09 05:49:19;;;;;;;10.20;4.80;;;;;;;;;;10497836;28;20036;-76
2022/08/09 05:54:19;;;;;;;7.67;4.77;;;;;;;;;;10496724;28;20024;-75
2022/08/09 05:59:20;;;;;;;8.20;4.05;;;;;;;;;;10497029;28;20074;-75
2022/08/09 06:04:21;;;;;;;7.00;4.35;;;;;;;;;;10496709;28;20405;-75
2022/08/09 06:09:21;;;;;;;12.63;4.70;;;;;;;;;;10496429;28;20031;-75
2022/08/09 06:14:21;;;;;;;8.80;4.00;;;;;;;;;;10482644;28;20116;-74
2022/08/09 06:19:22;;;;;;;8.17;4.60;;;;;;;;;;10496325;28;20518;-75
2022/08/09 06:24:22;;;;;;;9.32;4.72;;;;;;;;;;10497193;28;20438;-74
2022/08/09 06:29:23;;;;;;;15.80;5.20;;;;;;;;;;10496187;28;20103;-74
2022/08/09 06:34:23;;;;;;;10.07;5.47;;;;;;;;;;10496338;28;20032;-76
2022/08/09 06:39:23;;;;;;;12.95;6.30;;;;;;;;;;10495262;28;20086;-73
2022/08/09 06:44:24;;;;;;;16.20;6.43;;;;;;;;;;10495185;28;20056;-73
2022/08/09 06:49:24;;;;;;;11.30;6.10;;;;;;;;;;10494967;28;20133;-72
2022/08/09 06:54:24;;;;;;;19.27;6.47;;;;;;;;;;10494861;28;20023;-74
2022/08/09 06:59:24;;;;;;;15.20;7.85;;;;;;;;;;10495970;28;20063;-77
2022/08/09 07:04:25;;;;;;;14.68;8.77;;;;;;;;;;10494779;28;20020;-73
2022/08/09 07:09:25;;;;;;;13.35;6.68;;;;;;;;;;10493949;28;20457;-75
2022/08/09 07:14:25;;;;;;;17.73;9.52;;;;;;;;;;10476580;28;20144;-73
2022/08/09 07:19:25;;;;;;;14.63;8.48;;;;;;;;;;10493686;28;20020;-75
2022/08/09 07:24:27;;;;;;;13.13;7.43;;;;;;;;;;10495095;28;20020;-74
2022/08/09 07:29:27;;;;;;;9.20;6.53;;;;;;;;;;10493530;28;20438;-74
2022/08/09 07:34:28;;;;;;;9.55;5.47;;;;;;;;;;10494844;28;20219;-74
2022/08/09 07:39:28;;;;;;;11.55;6.22;;;;;;;;;;10494399;28;20545;-74
2022/08/09 07:44:29;;;;;;;9.15;4.15;;;;;;;;;;10492529;28;20514;-74
2022/08/09 07:49:29;;;;;;;7.37;4.50;;;;;;;;;;10492900;28;20024;-74
2022/08/09 07:54:30;;;;;;;5.53;2.75;;;;;;;;;;10492527;28;20093;-74
2022/08/09 07:59:30;;;;;;;6.00;2.85;;;;;;;;;;10493536;28;20021;-74
2022/08/09 08:04:30;;;;;;;7.75;3.72;;;;;;;;;;10492030;28;20021;-73
2022/08/09 08:09:31;;;;;;;3.17;2.20;;;;;;;;;;10492257;28;20029;-76
2022/08/09 08:14:31;;;;;;;5.95;2.30;;;;;;;;;;10493688;28;20078;-74
2022/08/09 08:19:31;;;;;;;8.30;2.35;;;;;;;;;;10491806;28;20055;-75
2022/08/09 08:24:33;;;;;;;3.58;1.83;;;;;;;;;;10493891;28;20068;-74
2022/08/09 08:29:33;;;;;;;2.58;1.80;;;;;;;;;;10491687;28;20162;-75
2022/08/09 08:34:33;;;;;;;5.03;1.90;;;;;;;;;;10491863;28;20017;-75
2022/08/09 08:39:33;;;;;;;6.40;2.00;;;;;;;;;;10491775;28;20020;-74
2022/08/09 08:44:34;;;;;;;2.78;1.85;;;;;;;;;;10491459;28;20048;-74
2022/08/09 08:49:37;;;;;;;7.88;1.95;;;;;;;;;;10477538;28;20033;-75
2022/08/09 08:54:38;;;;;;;3.92;1.63;;;;;;;;;;10491392;28;20050;-74
2022/08/09 08:59:38;;;;;;;4.70;1.90;;;;;;;;;;10490938;28;20394;-75
2022/08/09 09:04:38;;;;;;;7.57;1.70;;;;;;;;;;10491112;28;20511;-75
2022/08/09 09:09:40;;;;;;;6.88;2.20;;;;;;;;;;10490973;28;20410;-74
2022/08/09 09:14:41;;;;;;;5.35;1.40;;;;;;;;;;10490918;28;20026;-75
2022/08/09 09:19:42;;;;;;;8.02;1.67;;;;;;;;;;10490955;28;20021;-75
2022/08/09 09:24:43;;;;;;;2.80;1.23;;;;;;;;;;10491036;28;20107;-75
2022/08/09 09:29:44;;;;;;;6.38;1.30;;;;;;;;;;10490453;28;20020;-74
2022/08/09 09:34:59;;;;;;;5.28;1.60;;;;;;;;;;10496817;28;20495;-74
2022/08/09 09:40:00;;;;;;;7.63;1.85;;;;;;;;;;10498818;28;20020;-75
2022/08/09 09:45:02;;;;;;;3.17;1.20;;;;;;;;;;10497525;28;20064;-74
2022/08/09 09:50:03;;;;;;;6.57;0.95;;;;;;;;;;10497574;28;20020;-75
2022/08/09 09:55:07;;;;;;;4.00;1.08;;;;;;;;;;10497046;28;20016;-74
2022/08/09 10:00:21;;;;;;;4.93;0.90;;;;;;;;;;10497038;28;20069;-75
2022/08/09 10:05:23;;;;;;;4.33;1.43;;;;;;;;;;10496935;28;20557;-74
2022/08/09 10:10:29;;;;;;;4.55;1.17;;;;;;;;;;10496535;28;20305;-75
2022/08/09 10:15:29;;;;;;;4.95;1.00;;;;;;;;;;10497717;28;20024;-75
2022/08/09 10:20:30;;;;;;;4.23;1.60;;;;;;;;;;10497465;28;20029;-74
2022/08/09 10:25:30;;;;;;;4.72;1.40;;;;;;;;;;10495740;28;20126;-75
2022/08/09 10:30:30;;;;;;;4.20;1.17;;;;;;;;;;10496012;28;20025;-74
2022/08/09 10:35:31;;;;;;;2.70;0.70;;;;;;;;;;10458033;28;20017;-74
2022/08/09 10:40:32;;;;;;;4.20;0.77;;;;;;;;;;10496998;28;20036;-74
2022/08/09 10:45:32;;;;;;;6.15;0.90;;;;;;;;;;10537024;28;20103;-74
2022/08/09 10:56:17;;;;;;;8.43;1.27;;;;;;;;;;10538213;28;20478;-75
2022/08/09 11:01:30;;;;;;;3.90;0.80;;;;;;;;;;10519563;28;20020;-74
2022/08/09 11:06:32;;;;;;;1.23;1.08;;;;;;;;;;10519195;28;20020;-75
2022/08/09 11:11:51;;;;;;;5.03;1.20;;;;;;;;;;10519306;28;20481;-75
2022/08/09 11:16:51;;;;;;;5.38;1.95;;;;;;;;;;10491614;28;20470;-74
2022/08/09 11:21:56;;;;;;;2.63;1.33;;;;;;;;;;10518676;28;20085;-74
2022/08/09 11:26:56;;;;;;;7.97;1.25;;;;;;;;;;10518557;28;20016;-78
2022/08/09 11:31:56;;;;;;;2.80;1.42;;;;;;;;;;10518171;28;20481;-73
2022/08/09 11:36:58;;;;;;;4.68;2.08;;;;;;;;;;10536040;28;20028;-73
2022/08/09 11:42:06;;;;;;;3.17;1.98;;;;;;;;;;10500732;28;20028;-73
2022/08/09 11:47:06;;;;;;;3.25;2.15;;;;;;;;;;10517690;28;20028;-73
2022/08/09 11:52:06;;;;;;;4.93;2.42;;;;;;;;;;10517203;28;20512;-73
2022/08/09 11:57:25;;;;;;;3.78;1.67;;;;;;;;;;10517325;28;20511;-75
2022/08/09 12:02:25;;;;;;;6.25;1.73;;;;;;;;;;10517064;28;20020;-73
2022/08/09 12:07:26;;;;;;;3.60;1.80;;;;;;;;;;10535505;28;20397;-74
2022/08/09 12:12:26;;;;;;;3.42;1.90;;;;;;;;;;10500513;28;20028;-74
2022/08/09 12:17:28;;;;;;;4.95;1.90;;;;;;;;;;10516596;28;20031;-74
2022/08/09 12:22:28;;;;;;;3.10;2.22;;;;;;;;;;10516487;28;20026;-74
2022/08/09 12:27:28;;;;;;;7.35;2.72;;;;;;;;;;10516616;28;20120;-74
2022/08/09 12:32:28;;;;;;;4.00;2.13;;;;;;;;;;10539691;28;20527;-75
2022/08/09 12:37:29;;;;;;;5.03;2.30;;;;;;;;;;10516271;28;20105;-74
2022/08/09 12:42:30;;;;;;;5.50;2.03;;;;;;;;;;10516385;28;20108;-74
2022/08/09 12:47:30;;;;;;;5.27;2.10;;;;;;;;;;10534425;28;20028;-74
2022/08/09 12:52:41;;;;;;;8.17;2.10;;;;;;;;;;10516235;28;20103;-74
2022/08/09 12:57:43;;;;;;;11.98;2.35;;;;;;;;;;10515736;28;20085;-75
2022/08/09 13:02:46;;;;;;;5.82;2.38;;;;;;;;;;10515633;28;20023;-74
2022/08/09 13:08:08;;;;;;;4.47;1.88;;;;;;;;;;10537379;28;20031;-73
2022/08/09 13:13:09;;;;;;;4.90;2.00;;;;;;;;;;10524144;28;20481;-75
2022/08/09 13:18:09;;;;;;;6.28;2.40;;;;;;;;;;10523304;28;20024;-74
2022/08/09 13:23:09;;;;;;;3.28;2.42;;;;;;;;;;10541610;28;20107;-74
2022/08/09 13:28:11;;;;;;;7.65;2.58;;;;;;;;;;10523229;28;20020;-75
2022/08/09 13:33:20;;;;;;;4.85;1.95;;;;;;;;;;10523291;28;20012;-74
2022/08/09 13:38:20;;;;;;;7.00;2.70;;;;;;;;;;10522400;28;20447;-77
2022/08/09 13:43:21;;;;;;;8.50;1.97;;;;;;;;;;10522386;28;20051;-74
2022/08/09 13:48:21;;;;;;;6.55;2.45;;;;;;;;;;10522578;28;20024;-74
2022/08/09 13:53:21;;;;;;;4.78;2.22;;;;;;;;;;10540340;28;20047;-73
2022/08/09 13:58:22;;;;;;;5.87;3.03;;;;;;;;;;10521900;28;20036;-74
2022/08/09 14:03:22;;;;;;;6.72;2.58;;;;;;;;;;10488014;28;20439;-73
2022/08/09 14:08:22;;;;;;;7.75;2.20;;;;;;;;;;10540039;28;20111;-73
2022/08/09 14:13:23;;;;;;;8.03;2.20;;;;;;;;;;10521588;28;20185;-74
2022/08/09 14:18:24;;;;;;;4.78;2.40;;;;;;;;;;10520932;28;20112;-73
2022/08/09 14:23:24;;;;;;;4.45;2.50;;;;;;;;;;10520511;28;20511;-73
2022/08/09 14:28:25;;;;;;;6.18;2.63;;;;;;;;;;10521047;28;20160;-75
2022/08/09 14:33:25;;;;;;;5.72;2.60;;;;;;;;;;10500594;28;20492;-74
2022/08/09 14:38:25;;;;;;;7.65;3.58;;;;;;;;;;10520001;28;20107;-74
2022/08/09 14:43:25;;;;;;;10.32;2.28;;;;;;;;;;10519937;28;20102;-73
2022/08/09 14:48:26;;;;;;;4.78;2.30;;;;;;;;;;10519732;28;20031;-75
2022/08/09 14:53:26;;;;;;;5.10;2.50;;;;;;;;;;10519640;28;20027;-76
2022/08/09 14:58:26;;;;;;;5.00;2.83;;;;;;;;;;10519106;28;20024;-74
2022/08/09 15:03:27;;;;;;;11.52;2.80;;;;;;;;;;10519163;28;20019;-74
2022/08/09 15:08:27;;;;;;;7.20;2.78;;;;;;;;;;10519217;28;20435;-74
2022/08/09 15:13:27;;;;;;;6.47;2.50;;;;;;;;;;10517973;28;20032;-73
2022/08/09 15:18:28;;;;;;;5.67;2.50;;;;;;;;;;10518615;28;20024;-75
2022/08/09 15:23:28;;;;;;;6.55;2.95;;;;;;;;;;10518313;28;20489;-73
2022/08/09 15:28:29;;;;;;;6.57;2.42;;;;;;;;;;10518020;28;20520;-75
2022/08/09 15:33:29;;;;;;;5.57;2.85;;;;;;;;;;10517583;28;20065;-75
2022/08/09 15:38:31;;;;;;;5.93;2.80;;;;;;;;;;10517627;28;20558;-74
2022/08/09 15:43:31;;;;;;;5.35;2.55;;;;;;;;;;10517085;28;20059;-74
2022/08/09 15:48:31;;;;;;;4.07;2.80;;;;;;;;;;10517444;28;20024;-74
2022/08/09 15:53:32;;;;;;;6.60;2.90;;;;;;;;;;10517152;28;20020;-74
2022/08/09 15:58:32;;;;;;;10.40;2.30;;;;;;;;;;10535418;28;20400;-75
2022/08/09 16:03:32;;;;;;;6.55;2.92;;;;;;;;;;10534744;28;20020;-75
2022/08/09 16:08:32;;;;;;;5.30;2.78;;;;;;;;;;10517428;28;20073;-74
2022/08/09 16:13:33;;;;;;;4.53;3.05;;;;;;;;;;10517642;28;20024;-74
2022/08/09 16:18:33;;;;;;;6.13;3.13;;;;;;;;;;10534604;28;20024;-74
2022/08/09 16:23:34;;;;;;;3.75;2.53;;;;;;;;;;10516663;28;20095;-75
2022/08/09 16:28:34;;;;;;;5.65;3.10;;;;;;;;;;10516326;28;20134;-74
2022/08/09 16:33:34;;;;;;;6.70;2.30;;;;;;;;;;10516292;28;20397;-74
2022/08/09 16:38:34;;;;;;;9.48;3.63;;;;;;;;;;10515867;28;20554;-74
2022/08/09 16:43:35;;;;;;;8.15;2.58;;;;;;;;;;10521076;28;20043;-74
2022/08/09 16:48:35;;;;;;;4.35;2.13;;;;;;;;;;10542747;28;20020;-75
2022/08/09 16:53:36;;;;;;;4.47;2.47;;;;;;;;;;10542952;28;20099;-75
2022/08/09 16:58:39;;;;;;;6.32;3.85;;;;;;;;;;10524193;28;20020;-74
2022/08/09 17:03:40;;;;;;;6.82;3.72;;;;;;;;;;10524677;28;20028;-73
2022/08/09 17:08:40;;;;;;;4.13;2.65;;;;;;;;;;10542344;28;20127;-74
2022/08/09 17:13:40;;;;;;;6.93;2.53;;;;;;;;;;10524316;28;20515;-74
2022/08/09 17:18:41;;;;;;;4.88;2.35;;;;;;;;;;10523833;28;20047;-76
2022/08/09 17:23:41;;;;;;;4.18;2.45;;;;;;;;;;10523567;28;20012;-75
2022/08/09 17:28:41;;;;;;;3.55;1.77;;;;;;;;;;10523196;28;20457;-75
2022/08/09 17:33:41;;;;;;;11.23;2.90;;;;;;;;;;10523312;28;20016;-74
2022/08/09 17:38:42;;;;;;;8.98;2.80;;;;;;;;;;10522921;28;20048;-75
2022/08/09 17:43:42;;;;;;;2.97;2.40;;;;;;;;;;10522949;28;20066;-74
2022/08/09 17:48:42;;;;;;;4.28;2.88;;;;;;;;;;10523055;28;20424;-74
2022/08/09 17:53:43;;;;;;;5.07;3.15;;;;;;;;;;10521963;28;20503;-75
2022/08/09 17:58:43;;;;;;;4.03;2.40;;;;;;;;;;10540517;28;20020;-75
2022/08/09 18:03:43;;;;;;;3.22;2.17;;;;;;;;;;10521901;28;20066;-74
2022/08/09 18:08:43;;;;;;;6.28;2.08;;;;;;;;;;10521407;28;20455;-73
2022/08/09 18:13:44;;;;;;;3.08;1.88;;;;;;;;;;10521733;28;20548;-74
2022/08/09 18:18:44;;;;;;;3.73;2.57;;;;;;;;;;10521144;28;20023;-73
2022/08/09 18:23:44;;;;;;;5.70;2.15;;;;;;;;;;10539705;28;20066;-74
2022/08/09 18:28:44;;;;;;;3.97;3.10;;;;;;;;;;10521722;28;20114;-74
2022/08/09 18:33:45;;;;;;;4.80;2.25;;;;;;;;;;10521048;28;20024;-74
2022/08/09 18:38:45;;;;;;;3.92;2.80;;;;;;;;;;10520670;28;20035;-73
2022/08/09 18:43:45;;;;;;;6.43;4.05;;;;;;;;;;10495380;28;20045;-75
2022/08/09 18:48:45;;;;;;;8.52;3.58;;;;;;;;;;10495742;28;20030;-74
2022/08/09 18:53:46;;;;;;;12.00;4.25;;;;;;;;;;10496341;28;20028;-75
2022/08/09 18:58:46;;;;;;;6.07;3.70;;;;;;;;;;10495057;28;20432;-73
2022/08/09 19:03:46;;;;;;;6.78;3.60;;;;;;;;;;10493949;28;20099;-74
2022/08/09 19:08:47;;;;;;;11.02;3.67;;;;;;;;;;10494419;28;20020;-74
2022/08/09 19:13:48;;;;;;;3.40;2.83;;;;;;;;;;10495651;28;20055;-73
2022/08/09 19:18:48;;;;;;;9.43;3.58;;;;;;;;;;10494413;28;20063;-74
2022/08/09 19:23:48;;;;;;;5.22;3.10;;;;;;;;;;10493703;28;20485;-73
2022/08/09 19:28:49;;;;;;;5.77;3.33;;;;;;;;;;10493637;28;20051;-73
2022/08/09 19:33:49;;;;;;;6.82;3.22;;;;;;;;;;10493689;28;20267;-73
2022/08/09 19:38:50;;;;;;;4.03;3.27;;;;;;;;;;10494602;28;20024;-74
2022/08/09 19:43:50;;;;;;;8.02;2.90;;;;;;;;;;10492526;28;20079;-73
2022/08/09 19:48:51;;;;;;;8.63;3.08;;;;;;;;;;10493115;28;20051;-73
2022/08/09 19:53:51;;;;;;;8.85;5.13;;;;;;;;;;10469675;28;20107;-75
2022/08/09 19:58:52;;;;;;;6.03;3.83;;;;;;;;;;10493848;28;20107;-73
2022/08/09 20:03:53;;;;;;;5.88;3.75;;;;;;;;;;10507563;28;20067;-73
2022/08/09 20:08:53;;;;;;;8.27;3.33;;;;;;;;;;10492510;28;20094;-74
2022/08/09 20:13:54;;;;;;;5.93;2.80;;;;;;;;;;10492328;28;20024;-73
2022/08/09 20:18:54;;;;;;;8.32;3.85;;;;;;;;;;10491724;28;20090;-74
2022/08/09 20:23:54;;;;;;;9.00;4.00;;;;;;;;;;10491996;28;20123;-73
2022/08/09 20:28:55;;;;;;;9.25;4.32;;;;;;;;;;10491789;28;20081;-74
2022/08/09 20:33:55;;;;;;;7.05;4.00;;;;;;;;;;10491976;28;20502;-73
2022/08/09 20:38:55;;;;;;;14.68;5.05;;;;;;;;;;10491189;28;20091;-73
2022/08/09 20:43:55;;;;;;;6.78;3.60;;;;;;;;;;10491482;28;20047;-73
2022/08/09 20:48:56;;;;;;;10.45;4.80;;;;;;;;;;10491588;28;20027;-73
2022/08/09 20:53:56;;;;;;;6.80;3.80;;;;;;;;;;10491294;28;20021;-73
2022/08/09 20:58:56;;;;;;;7.80;4.00;;;;;;;;;;10491280;28;20073;-75
2022/08/09 21:03:57;;;;;;;5.73;3.80;;;;;;;;;;10491388;28;20371;-74
2022/08/09 21:08:57;;;;;;;7.93;3.60;;;;;;;;;;10492851;28;20512;-74
2022/08/09 21:13:57;;;;;;;4.43;3.50;;;;;;;;;;10490796;28;20397;-74
2022/08/09 21:18:58;;;;;;;4.88;3.60;;;;;;;;;;10491509;28;20439;-75
2022/08/09 21:23:58;;;;;;;9.07;3.40;;;;;;;;;;10471452;28;20021;-75
2022/08/09 21:28:59;;;;;;;8.20;4.15;;;;;;;;;;10495833;28;20116;-74
2022/08/09 21:33:59;;;;;;;6.88;4.20;;;;;;;;;;10498787;28;20497;-74
2022/08/09 21:38:59;;;;;;;5.22;3.92;;;;;;;;;;10498245;28;20024;-74
2022/08/09 21:44:00;;;;;;;6.65;3.95;;;;;;;;;;10498161;28;20076;-75
2022/08/09 21:49:00;;;;;;;6.40;3.22;;;;;;;;;;10497913;28;20028;-73
2022/08/09 21:54:00;;;;;;;7.25;3.88;;;;;;;;;;10499009;28;20117;-73
2022/08/09 21:59:00;;;;;;;8.48;4.60;;;;;;;;;;10497635;28;20029;-74
2022/08/09 22:04:01;;;;;;;9.13;4.38;;;;;;;;;;10497616;28;20021;-73
2022/08/09 22:09:01;;;;;;;7.30;4.30;;;;;;;;;;10496915;28;20020;-78
2022/08/09 22:14:01;;;;;;;7.15;3.50;;;;;;;;;;10497358;28;20036;-74
2022/08/09 22:19:01;;;;;;;9.70;4.75;;;;;;;;;;10498605;28;20020;-74
2022/08/09 22:24:02;;;;;;;9.20;4.50;;;;;;;;;;10459685;28;20104;-74
2022/08/09 22:29:02;;;;;;;6.20;4.17;;;;;;;;;;10496420;28;20379;-74
2022/08/09 22:34:03;;;;;;;8.10;4.68;;;;;;;;;;10497762;28;20055;-74
2022/08/09 22:39:03;;;;;;;11.15;4.13;;;;;;;;;;10511033;28;20081;-73
2022/08/09 22:44:03;;;;;;;5.23;4.33;;;;;;;;;;10495753;28;20040;-74
2022/08/09 22:49:03;;;;;;;11.15;4.80;;;;;;;;;;10495566;28;20040;-74
2022/08/09 22:54:04;;;;;;;8.48;4.85;;;;;;;;;;10495441;28;20040;-74
2022/08/09 22:59:05;;;;;;;6.22;4.70;;;;;;;;;;10494957;28;20415;-75
2022/08/09 23:04:05;;;;;;;8.02;4.82;;;;;;;;;;10495257;28;20103;-74
2022/08/09 23:09:05;;;;;;;7.40;5.23;;;;;;;;;;10496128;28;20085;-75
2022/08/09 23:14:06;;;;;;;8.60;4.85;;;;;;;;;;10494904;28;20090;-74
2022/08/09 23:19:06;;;;;;;5.97;4.30;;;;;;;;;;10494137;28;20023;-75
2022/08/09 23:24:06;;;;;;;6.15;4.80;;;;;;;;;;10494145;28;20441;-74
2022/08/09 23:29:10;;;;;;;5.90;4.53;;;;;;;;;;10493743;28;20028;-74
2022/08/09 23:34:10;;;;;;;10.13;4.57;;;;;;;;;;10493746;28;20274;-73
2022/08/09 23:39:10;;;;;;;8.15;5.03;;;;;;;;;;10493521;28;20051;-74
2022/08/09 23:44:10;;;;;;;4.93;4.43;;;;;;;;;;10493142;28;20524;-75
2022/08/09 23:49:11;;;;;;;11.43;4.68;;;;;;;;;;10493393;28;20451;-74
2022/08/09 23:54:11;;;;;;;6.78;4.55;;;;;;;;;;10493898;28;20048;-74
2022/08/09 23:59:11;;;;;;;18.98;4.72;;;;;;;;;;10492895;28;20485;-74
